createdAt,value
2023-04-11T00:00:41.155Z,12.8571
2023-04-11T00:01:41.333Z,12.8571
2023-04-11T00:02:41.526Z,12.8571
2023-04-11T00:03:41.517Z,12.9286
2023-04-11T00:04:41.427Z,12.9286
2023-04-11T00:05:41.346Z,12.9286
2023-04-11T00:06:41.394Z,12.9286
2023-04-11T00:07:41.431Z,12.9286
2023-04-11T00:08:41.468Z,12.9286
2023-04-11T00:09:41.514Z,12.9286
2023-04-11T00:10:42.409Z,12.9286
2023-04-11T00:11:41.584Z,12.9286
2023-04-11T00:12:41.634Z,12.9286
2023-04-11T00:13:41.671Z,12.9286
2023-04-11T00:14:41.712Z,12.9286
2023-04-11T00:15:41.745Z,12.9286
2023-04-11T00:16:41.812Z,12.9286
2023-04-11T00:17:41.875Z,12.9286
2023-04-11T00:18:41.861Z,12.8571
2023-04-11T00:19:41.903Z,12.8571
2023-04-11T00:20:41.955Z,12.8571
2023-04-11T00:21:41.981Z,12.8571
2023-04-11T00:22:42.015Z,12.8571
2023-04-11T00:23:42.047Z,12.8571
2023-04-11T00:24:42.097Z,12.8571
2023-04-11T00:25:42.144Z,12.8571
2023-04-11T00:26:42.177Z,12.8571
2023-04-11T00:27:42.222Z,12.8571
2023-04-11T00:28:42.252Z,12.8571
2023-04-11T00:29:42.299Z,12.7857
2023-04-11T00:30:42.331Z,12.7857
2023-04-11T00:31:42.425Z,12.7857
2023-04-11T00:32:42.433Z,12.7857
2023-04-11T00:33:42.475Z,12.7857
2023-04-11T00:34:42.503Z,12.8571
2023-04-11T00:35:42.564Z,12.8571
2023-04-11T00:36:42.669Z,12.7857
2023-04-11T00:37:42.611Z,12.7857
2023-04-11T00:38:42.657Z,12.7857
2023-04-11T00:39:42.694Z,12.7857
2023-04-11T00:40:42.735Z,12.7857
2023-04-11T00:41:42.763Z,12.7857
2023-04-11T00:42:42.807Z,12.7857
2023-04-11T00:43:42.856Z,12.7857
2023-04-11T00:44:42.877Z,12.7857
2023-04-11T00:45:43.029Z,12.7857
2023-04-11T00:46:44.267Z,12.7857
2023-04-11T00:47:43.082Z,12.7857
2023-04-11T00:48:43.037Z,12.7857
2023-04-11T00:49:43.068Z,12.7857
2023-04-11T00:50:43.129Z,12.7857
2023-04-11T00:51:43.164Z,12.7857
2023-04-11T00:52:43.192Z,12.7857
2023-04-11T00:53:43.239Z,12.7857
2023-04-11T00:54:43.270Z,12.7857
2023-04-11T00:55:43.302Z,12.7857
2023-04-11T00:56:43.343Z,12.7857
2023-04-11T00:57:43.387Z,12.7857
2023-04-11T00:58:43.419Z,12.7857
2023-04-11T00:59:43.466Z,12.7857
2023-04-11T01:00:43.493Z,12.7857
2023-04-11T01:01:43.739Z,12.7857
2023-04-11T01:02:43.868Z,12.7857
2023-04-11T01:03:43.729Z,12.7857
2023-04-11T01:04:43.654Z,12.7857
2023-04-11T01:05:43.694Z,12.7857
2023-04-11T01:06:43.737Z,12.7857
2023-04-11T01:07:43.783Z,12.7857
2023-04-11T01:08:43.869Z,12.7857
2023-04-11T01:09:43.857Z,12.7857
2023-04-11T01:10:43.903Z,12.7857
2023-04-11T01:11:43.933Z,12.7857
2023-04-11T01:12:43.986Z,12.7857
2023-04-11T01:13:44.021Z,12.7857
2023-04-11T01:14:44.065Z,12.7857
2023-04-11T01:15:44.103Z,12.7857
2023-04-11T01:16:44.146Z,12.7857
2023-04-11T01:17:44.233Z,12.7857
2023-04-11T01:18:44.224Z,12.7857
2023-04-11T01:19:44.261Z,12.8571
2023-04-11T01:20:44.303Z,12.8571
2023-04-11T01:21:44.349Z,12.8571
2023-04-11T01:22:44.384Z,12.8571
2023-04-11T01:23:44.431Z,12.8571
2023-04-11T01:25:15.916Z,12.8571
2023-04-11T01:25:44.507Z,12.8571
2023-04-11T01:26:44.554Z,12.8571
2023-04-11T01:27:44.590Z,12.8571
2023-04-11T01:28:44.634Z,12.8571
2023-04-11T01:29:44.672Z,12.8571
2023-04-11T01:30:44.728Z,12.8571
2023-04-11T01:31:44.752Z,12.8571
2023-04-11T01:32:44.832Z,12.8571
2023-04-11T01:33:44.833Z,12.8571
2023-04-11T01:34:44.875Z,12.8571
2023-04-11T01:35:44.911Z,12.8571
2023-04-11T01:36:44.930Z,12.8571
2023-04-11T01:37:44.989Z,12.8571
2023-04-11T01:38:45.020Z,12.8571
2023-04-11T01:39:45.147Z,12.8571
2023-04-11T01:40:45.105Z,12.8571
2023-04-11T01:41:45.150Z,12.8571
2023-04-11T01:42:45.185Z,12.8571
2023-04-11T01:43:45.225Z,12.8571
2023-04-11T01:44:45.268Z,12.8571
2023-04-11T01:45:45.300Z,12.8571
2023-04-11T01:46:45.339Z,12.8571
2023-04-11T01:47:45.452Z,12.8571
2023-04-11T01:48:45.688Z,12.8571
2023-04-11T01:49:45.480Z,12.8571
2023-04-11T01:50:45.503Z,12.8571
2023-04-11T01:51:45.542Z,12.8571
2023-04-11T01:52:45.584Z,12.8571
2023-04-11T01:53:45.618Z,12.8571
2023-04-11T01:54:45.654Z,12.8571
2023-04-11T01:55:45.695Z,12.8571
2023-04-11T01:56:45.723Z,12.8571
2023-04-11T01:57:45.767Z,12.8571
2023-04-11T01:58:45.798Z,12.8571
2023-04-11T01:59:45.843Z,12.8571
2023-04-11T02:00:45.876Z,12.8571
2023-04-11T02:01:46.006Z,12.8571
2023-04-11T02:02:46.193Z,12.8571
2023-04-11T02:03:46.094Z,12.8571
2023-04-11T02:04:46.027Z,12.8571
2023-04-11T02:05:46.075Z,12.8571
2023-04-11T02:06:46.109Z,12.8571
2023-04-11T02:07:46.172Z,12.8571
2023-04-11T02:08:46.184Z,12.8571
2023-04-11T02:09:46.220Z,12.8571
2023-04-11T02:10:46.247Z,12.7857
2023-04-11T02:11:46.295Z,12.7857
2023-04-11T02:12:46.371Z,12.7857
2023-04-11T02:13:46.371Z,12.7857
2023-04-11T02:14:46.399Z,12.7857
2023-04-11T02:15:46.472Z,12.7857
2023-04-11T02:16:46.481Z,12.7857
2023-04-11T02:17:46.562Z,12.7143
2023-04-11T02:18:46.565Z,12.7857
2023-04-11T02:19:46.600Z,12.7143
2023-04-11T02:20:46.641Z,12.7143
2023-04-11T02:21:46.685Z,12.7143
2023-04-11T02:22:46.715Z,12.7143
2023-04-11T02:23:46.772Z,12.7143
2023-04-11T02:24:46.798Z,12.7143
2023-04-11T02:25:46.855Z,12.7143
2023-04-11T02:26:46.872Z,12.7143
2023-04-11T02:27:46.926Z,12.7143
2023-04-11T02:28:46.967Z,12.7143
2023-04-11T02:29:46.997Z,12.7143
2023-04-11T02:30:47.167Z,12.7857
2023-04-11T02:31:47.229Z,12.7857
2023-04-11T02:32:47.125Z,12.7857
2023-04-11T02:33:47.157Z,12.7143
2023-04-11T02:34:47.185Z,12.7143
2023-04-11T02:35:47.244Z,12.7143
2023-04-11T02:36:47.293Z,12.7143
2023-04-11T02:37:47.332Z,12.7143
2023-04-11T02:38:47.371Z,12.7143
2023-04-11T02:39:47.408Z,12.7143
2023-04-11T02:40:47.462Z,12.7143
2023-04-11T02:41:47.493Z,12.7143
2023-04-11T02:42:47.526Z,12.7143
2023-04-11T02:43:47.568Z,12.7143
2023-04-11T02:44:47.613Z,12.7143
2023-04-11T02:45:47.634Z,12.7143
2023-04-11T02:46:47.686Z,12.7143
2023-04-11T02:47:47.748Z,12.6429
2023-04-11T02:48:47.746Z,12.6429
2023-04-11T02:49:47.783Z,12.6429
2023-04-11T02:50:47.830Z,12.6429
2023-04-11T02:51:47.870Z,12.6429
2023-04-11T02:52:48.030Z,12.6429
2023-04-11T02:53:47.934Z,12.6429
2023-04-11T02:54:47.993Z,12.7143
2023-04-11T02:55:48.023Z,12.7143
2023-04-11T02:56:48.052Z,12.7143
2023-04-11T02:57:48.107Z,12.7143
2023-04-11T02:58:48.149Z,12.7143
2023-04-11T02:59:48.192Z,12.7143
2023-04-11T03:00:48.231Z,12.7143
2023-04-11T03:01:48.326Z,12.7143
2023-04-11T03:02:48.346Z,12.7143
2023-04-11T03:03:48.492Z,12.7143
2023-04-11T03:04:48.382Z,12.7143
2023-04-11T03:05:48.414Z,12.7143
2023-04-11T03:06:48.448Z,12.7143
2023-04-11T03:07:48.502Z,12.7143
2023-04-11T03:08:48.527Z,12.7143
2023-04-11T03:09:48.568Z,12.7143
2023-04-11T03:10:48.612Z,12.7143
2023-04-11T03:11:48.653Z,12.7857
2023-04-11T03:12:48.691Z,12.7857
2023-04-11T03:13:48.741Z,12.7857
2023-04-11T03:14:48.781Z,12.7857
2023-04-11T03:15:48.862Z,12.7857
2023-04-11T03:16:48.852Z,12.7857
2023-04-11T03:17:48.919Z,12.7857
2023-04-11T03:18:48.924Z,12.7857
2023-04-11T03:19:48.968Z,12.7857
2023-04-11T03:20:49.007Z,12.7857
2023-04-11T03:21:49.060Z,12.7857
2023-04-11T03:22:49.088Z,12.7857
2023-04-11T03:23:49.132Z,12.8571
2023-04-11T03:24:49.168Z,12.8571
2023-04-11T03:25:49.209Z,12.8571
2023-04-11T03:26:49.256Z,12.8571
2023-04-11T03:27:49.303Z,12.8571
2023-04-11T03:28:49.333Z,12.8571
2023-04-11T03:29:49.381Z,12.8571
2023-04-11T03:30:49.411Z,12.8571
2023-04-11T03:31:49.480Z,12.8571
2023-04-11T03:32:49.557Z,12.9286
2023-04-11T03:33:49.529Z,12.9286
2023-04-11T03:34:49.565Z,12.9286
2023-04-11T03:35:49.627Z,12.9286
2023-04-11T03:36:49.642Z,12.9286
2023-04-11T03:37:49.681Z,12.9286
2023-04-11T03:38:49.724Z,12.9286
2023-04-11T03:39:49.753Z,13
2023-04-11T03:40:49.794Z,13
2023-04-11T03:41:49.835Z,13
2023-04-11T03:42:49.879Z,13
2023-04-11T03:43:49.915Z,13
2023-04-11T03:44:49.956Z,13
2023-04-11T03:45:50.001Z,13
2023-04-11T03:46:50.132Z,13
2023-04-11T03:47:50.107Z,13
2023-04-11T03:48:50.128Z,13.0714
2023-04-11T03:49:50.168Z,13.0714
2023-04-11T03:50:50.185Z,13.0714
2023-04-11T03:51:50.257Z,13.0714
2023-04-11T03:52:50.270Z,13.0714
2023-04-11T03:53:50.310Z,13
2023-04-11T03:54:50.348Z,13
2023-04-11T03:55:50.398Z,13
2023-04-11T03:56:50.439Z,13
2023-04-11T03:57:50.475Z,13
2023-04-11T03:58:50.526Z,13
2023-04-11T03:59:50.559Z,13
2023-04-11T04:00:50.608Z,12.9286
2023-04-11T04:01:50.703Z,12.9286
2023-04-11T04:02:50.922Z,12.9286
2023-04-11T04:03:51.007Z,12.9286
2023-04-11T04:04:50.843Z,12.8571
2023-04-11T04:05:50.808Z,12.8571
2023-04-11T04:06:50.921Z,12.8571
2023-04-11T04:07:50.886Z,12.7857
2023-04-11T04:08:50.925Z,12.7857
2023-04-11T04:09:50.966Z,12.7143
2023-04-11T04:10:50.998Z,12.6429
2023-04-11T04:11:51.057Z,12.6429
2023-04-11T04:12:51.076Z,12.5714
2023-04-11T04:13:51.127Z,12.5
2023-04-11T04:14:51.160Z,12.4286
2023-04-11T04:15:51.201Z,12.4286
2023-04-11T04:16:51.281Z,12.3571
2023-04-11T04:17:51.305Z,12.3571
2023-04-11T04:18:51.313Z,12.2857
2023-04-11T04:19:51.353Z,12.2857
2023-04-11T04:20:51.392Z,12.2143
2023-04-11T04:21:51.433Z,12.2143
2023-04-11T04:22:51.473Z,12.2143
2023-04-11T04:23:51.516Z,12.1429
2023-04-11T04:24:51.555Z,12.1429
2023-04-11T04:25:51.600Z,12.1429
2023-04-11T04:26:51.627Z,12.1429
2023-04-11T04:27:51.678Z,12.0714
2023-04-11T04:28:51.723Z,12.0714
2023-04-11T04:29:54.471Z,12.0714
2023-04-11T04:30:51.806Z,12.0714
2023-04-11T04:31:51.859Z,12
2023-04-11T04:32:51.941Z,12
2023-04-11T04:33:51.935Z,12
2023-04-11T04:34:51.959Z,12
2023-04-11T04:35:52.030Z,11.9286
2023-04-11T04:36:52.031Z,11.9286
2023-04-11T04:37:52.074Z,11.9286
2023-04-11T04:38:52.112Z,11.8571
2023-04-11T04:39:52.153Z,11.8571
2023-04-11T04:40:52.193Z,11.8571
2023-04-11T04:41:52.224Z,11.8571
2023-04-11T04:42:52.271Z,11.8571
2023-04-11T04:43:53.271Z,11.8571
2023-04-11T04:46:52.418Z,11.7857
2023-04-11T04:48:07.944Z,11.7857
2023-04-11T04:49:53.956Z,11.7857
2023-04-11T04:50:53.060Z,11.7857
2023-04-11T04:51:53.113Z,11.7857
2023-04-11T04:54:52.947Z,11.7857
2023-04-11T04:56:01.481Z,11.7143
2023-04-11T04:56:57.067Z,11.7143
2023-04-11T04:58:01.004Z,11.7143
2023-04-11T04:59:10.987Z,11.7857
2023-04-11T04:59:53.401Z,11.7857
2023-04-11T05:00:53.482Z,11.7143
2023-04-11T05:04:54.372Z,11.7143
2023-04-11T05:05:55.533Z,11.7143
2023-04-11T05:09:54.252Z,11.7143
2023-04-11T05:09:55.250Z,11.7143
2023-04-11T05:10:53.337Z,11.7143
2023-04-11T05:12:58.154Z,11.6429
2023-04-11T05:13:52.825Z,11.7143
2023-04-11T05:13:54.268Z,11.7143
2023-04-11T05:14:58.800Z,11.6429
2023-04-11T05:15:59.184Z,11.6429
2023-04-11T05:18:01.250Z,11.6429
2023-04-11T05:18:53.680Z,11.6429
2023-04-11T05:19:53.680Z,11.6429
2023-04-11T05:20:53.712Z,11.6429
2023-04-11T05:21:53.751Z,11.6429
2023-04-11T05:22:53.799Z,11.6429
2023-04-11T05:23:54.065Z,11.6429
2023-04-11T05:24:53.867Z,11.6429
2023-04-11T05:25:53.942Z,11.6429
2023-04-11T05:26:53.949Z,11.5714
2023-04-11T05:27:53.988Z,11.5714
2023-04-11T05:28:54.025Z,11.5714
2023-04-11T05:29:54.069Z,11.5714
2023-04-11T05:30:54.171Z,11.5714
2023-04-11T05:31:54.151Z,11.5714
2023-04-11T05:32:54.235Z,11.5714
2023-04-11T05:33:54.507Z,11.5714
2023-04-11T05:34:56.561Z,11.5714
2023-04-11T05:35:54.334Z,11.5714
2023-04-11T05:36:54.332Z,11.5714
2023-04-11T05:37:54.377Z,11.6429
2023-04-11T05:38:54.420Z,11.6429
2023-04-11T05:39:54.458Z,11.6429
2023-04-11T05:40:54.495Z,11.6429
2023-04-11T05:41:54.538Z,11.7143
2023-04-11T05:42:54.598Z,11.7143
2023-04-11T05:43:54.910Z,11.7143
2023-04-11T05:44:54.653Z,11.7857
2023-04-11T05:45:54.741Z,11.7143
2023-04-11T05:46:54.734Z,11.7857
2023-04-11T05:47:54.791Z,11.7857
2023-04-11T05:48:54.810Z,11.7857
2023-04-11T05:49:54.846Z,11.7857
2023-04-11T05:50:54.899Z,11.7857
2023-04-11T05:51:54.936Z,11.7857
2023-04-11T05:52:54.976Z,11.7857
2023-04-11T05:53:55.265Z,11.7857
2023-04-11T05:54:55.041Z,11.7857
2023-04-11T05:55:55.107Z,11.7857
2023-04-11T05:56:55.122Z,11.7857
2023-04-11T05:57:55.174Z,11.7857
2023-04-11T05:58:55.196Z,11.7857
2023-04-11T05:59:55.233Z,11.8571
2023-04-11T06:00:55.288Z,11.8571
2023-04-11T06:01:55.371Z,11.8571
2023-04-11T06:02:55.496Z,11.9286
2023-04-11T06:03:55.967Z,11.9286
2023-04-11T06:04:55.506Z,11.9286
2023-04-11T06:05:55.477Z,11.9286
2023-04-11T06:06:55.508Z,12
2023-04-11T06:07:55.556Z,12
2023-04-11T06:08:55.591Z,12
2023-04-11T06:09:55.630Z,12
2023-04-11T06:10:55.664Z,12.0714
2023-04-11T06:11:55.723Z,12.0714
2023-04-11T06:12:55.725Z,12.0714
2023-04-11T06:13:55.993Z,12.0714
2023-04-11T06:14:55.810Z,12.0714
2023-04-11T06:15:55.868Z,12.1429
2023-04-11T06:16:55.894Z,12.1429
2023-04-11T06:17:55.999Z,12.1429
2023-04-11T06:18:55.943Z,12.1429
2023-04-11T06:19:55.985Z,12.1429
2023-04-11T06:20:56.022Z,12.1429
2023-04-11T06:21:56.065Z,12.2143
2023-04-11T06:22:56.102Z,12.2143
2023-04-11T06:23:56.726Z,12.2143
2023-04-11T06:25:56.208Z,12.2143
2023-04-11T06:26:56.261Z,12.2143
2023-04-11T06:27:56.307Z,12.2143
2023-04-11T06:28:56.333Z,12.2143
2023-04-11T06:29:56.384Z,12.2143
2023-04-11T06:30:56.465Z,12.2143
2023-04-11T06:31:56.463Z,12.2143
2023-04-11T06:32:56.547Z,12.2143
2023-04-11T06:33:56.893Z,12.2143
2023-04-11T06:34:56.584Z,12.2143
2023-04-11T06:35:56.645Z,12.2143
2023-04-11T06:36:56.653Z,12.2143
2023-04-11T06:37:56.704Z,12.2143
2023-04-11T06:38:56.753Z,12.2143
2023-04-11T06:39:56.771Z,12.2143
2023-04-11T06:40:56.814Z,12.2143
2023-04-11T06:41:56.852Z,12.2143
2023-04-11T06:42:56.899Z,12.2143
2023-04-11T06:43:57.218Z,12.2143
2023-04-11T06:44:56.964Z,12.2857
2023-04-11T06:45:57.008Z,12.2857
2023-04-11T06:46:57.224Z,12.2857
2023-04-11T06:47:57.096Z,12.2857
2023-04-11T06:48:57.110Z,12.3571
2023-04-11T06:49:57.164Z,12.3571
2023-04-11T06:50:57.188Z,12.3571
2023-04-11T06:51:57.239Z,12.4286
2023-04-11T06:52:57.274Z,12.4286
2023-04-11T06:53:57.517Z,12.4286
2023-04-11T06:54:57.365Z,12.5
2023-04-11T06:55:57.391Z,12.5
2023-04-11T06:56:57.438Z,12.5
2023-04-11T06:57:57.464Z,12.5714
2023-04-11T06:58:57.545Z,12.5714
2023-04-11T06:59:57.571Z,12.5714
2023-04-11T07:00:57.580Z,12.5714
2023-04-11T07:01:57.658Z,12.6429
2023-04-11T07:02:57.943Z,12.6429
2023-04-11T07:03:57.870Z,12.6429
2023-04-11T07:04:57.803Z,12.6429
2023-04-11T07:05:57.778Z,12.7143
2023-04-11T07:06:57.822Z,12.7143
2023-04-11T07:07:57.868Z,12.7143
2023-04-11T07:08:57.896Z,12.7857
2023-04-11T07:09:57.940Z,12.7857
2023-04-11T07:10:57.975Z,12.8571
2023-04-11T07:11:58.020Z,12.9286
2023-04-11T07:12:58.052Z,12.9286
2023-04-11T07:13:58.209Z,12.9286
2023-04-11T07:14:58.112Z,13
2023-04-11T07:15:58.258Z,13
2023-04-11T07:16:58.195Z,13.0714
2023-04-11T07:17:58.276Z,13.0714
2023-04-11T07:18:58.284Z,13.1429
2023-04-11T07:19:58.330Z,13.1429
2023-04-11T07:20:58.351Z,13.1429
2023-04-11T07:21:58.412Z,13.2143
2023-04-11T07:22:58.432Z,13.2143
2023-04-11T07:23:58.468Z,13.2143
2023-04-11T07:24:58.514Z,13.2143
2023-04-11T07:25:58.542Z,13.2143
2023-04-11T07:26:58.590Z,13.2143
2023-04-11T07:27:58.636Z,13.2143
2023-04-11T07:28:58.654Z,13.2143
2023-04-11T07:29:58.693Z,13.2143
2023-04-11T07:30:58.731Z,13.2143
2023-04-11T07:31:58.868Z,13.2143
2023-04-11T07:32:58.846Z,13.2143
2023-04-11T07:33:59.085Z,13.2857
2023-04-11T07:34:58.896Z,13.2857
2023-04-11T07:35:58.952Z,13.3571
2023-04-11T07:36:58.974Z,13.4286
2023-04-11T07:37:59.020Z,13.4286
2023-04-11T07:38:59.061Z,13.5
2023-04-11T07:39:59.089Z,13.5714
2023-04-11T07:40:59.130Z,13.5714
2023-04-11T07:41:59.162Z,13.6429
2023-04-11T07:42:59.199Z,13.6429
2023-04-11T07:43:59.242Z,13.6429
2023-04-11T07:44:59.290Z,13.6429
2023-04-11T07:45:59.321Z,13.6429
2023-04-11T07:46:59.361Z,13.6429
2023-04-11T07:47:59.426Z,13.6429
2023-04-11T07:48:59.432Z,13.6429
2023-04-11T07:49:59.478Z,13.5714
2023-04-11T07:50:59.550Z,13.5714
2023-04-11T07:51:59.563Z,13.5714
2023-04-11T07:52:59.604Z,13.5714
2023-04-11T07:53:59.652Z,13.5
2023-04-11T07:54:59.682Z,13.5
2023-04-11T07:55:59.764Z,13.5
2023-04-11T07:56:59.750Z,13.4286
2023-04-11T07:57:59.791Z,13.4286
2023-04-11T07:58:59.827Z,13.3571
2023-04-11T07:59:59.894Z,13.2857
2023-04-11T08:00:59.916Z,13.2143
2023-04-11T08:02:00.057Z,13.2143
2023-04-11T08:03:00.265Z,13.1429
2023-04-11T08:04:00.663Z,13.0714
2023-04-11T08:05:00.163Z,13.0714
2023-04-11T08:06:00.150Z,13
2023-04-11T08:07:00.142Z,12.9286
2023-04-11T08:08:00.184Z,12.9286
2023-04-11T08:09:00.207Z,12.9286
2023-04-11T08:10:00.282Z,12.8571
2023-04-11T08:11:00.278Z,12.8571
2023-04-11T08:12:00.328Z,12.8571
2023-04-11T08:13:00.360Z,12.8571
2023-04-11T08:14:00.396Z,12.8571
2023-04-11T08:15:00.445Z,12.8571
2023-04-11T08:16:00.465Z,12.8571
2023-04-11T08:17:00.511Z,12.8571
2023-04-11T08:18:00.602Z,12.8571
2023-04-11T08:19:00.568Z,12.8571
2023-04-11T08:20:02.289Z,12.8571
2023-04-11T08:21:00.668Z,12.8571
2023-04-11T08:22:00.695Z,12.8571
2023-04-11T08:23:00.729Z,12.8571
2023-04-11T08:24:00.753Z,12.8571
2023-04-11T08:25:00.795Z,12.8571
2023-04-11T08:26:00.846Z,12.9286
2023-04-11T08:27:00.873Z,12.9286
2023-04-11T08:28:00.920Z,12.9286
2023-04-11T08:29:00.942Z,12.9286
2023-04-11T08:30:00.987Z,12.9286
2023-04-11T08:31:01.051Z,12.9286
2023-04-11T08:32:01.084Z,12.9286
2023-04-11T08:33:01.168Z,13
2023-04-11T08:34:02.653Z,13
2023-04-11T08:35:01.183Z,13
2023-04-11T08:36:01.231Z,13
2023-04-11T08:37:01.267Z,13.0714
2023-04-11T08:38:01.312Z,13.0714
2023-04-11T08:39:01.358Z,13.0714
2023-04-11T08:40:01.396Z,13.0714
2023-04-11T08:41:01.456Z,13.0714
2023-04-11T08:42:01.486Z,13.1429
2023-04-11T08:43:01.603Z,13.1429
2023-04-11T08:44:01.547Z,13.2143
2023-04-11T08:45:01.591Z,13.2143
2023-04-11T08:46:01.650Z,13.2143
2023-04-11T08:47:01.672Z,13.2143
2023-04-11T08:48:01.733Z,13.2857
2023-04-11T08:49:01.752Z,13.2857
2023-04-11T08:50:01.827Z,13.2857
2023-04-11T08:51:01.823Z,13.2857
2023-04-11T08:52:01.860Z,13.2857
2023-04-11T08:53:01.896Z,13.2857
2023-04-11T08:54:01.935Z,13.3571
2023-04-11T08:55:02.105Z,13.3571
2023-04-11T08:56:02.032Z,13.4286
2023-04-11T08:57:02.068Z,13.5
2023-04-11T08:58:02.099Z,13.5714
2023-04-11T08:59:02.144Z,13.6429
2023-04-11T09:00:02.179Z,13.7857
2023-04-11T09:01:02.228Z,13.8571
2023-04-11T09:02:02.327Z,13.9286
2023-04-11T09:03:02.436Z,14
2023-04-11T09:04:02.327Z,14.0714
2023-04-11T09:05:02.435Z,14.2143
2023-04-11T09:06:02.412Z,14.2857
2023-04-11T09:07:02.450Z,14.3571
2023-04-11T09:08:02.478Z,14.4286
2023-04-11T09:09:02.524Z,14.5
2023-04-11T09:10:02.567Z,14.5714
2023-04-11T09:11:02.606Z,14.5714
2023-04-11T09:12:02.638Z,14.6429
2023-04-11T09:13:02.679Z,14.7143
2023-04-11T09:14:02.706Z,14.7143
2023-04-11T09:15:02.752Z,14.7857
2023-04-11T09:16:02.814Z,14.8571
2023-04-11T09:17:02.828Z,14.8571
2023-04-11T09:18:02.904Z,14.9286
2023-04-11T09:19:02.946Z,14.9286
2023-04-11T09:20:02.934Z,15
2023-04-11T09:21:02.980Z,15.0714
2023-04-11T09:22:03.011Z,15.0714
2023-04-11T09:23:03.056Z,15.1429
2023-04-11T09:24:03.084Z,15.2143
2023-04-11T09:25:03.133Z,15.2143
2023-04-11T09:26:03.181Z,15.2857
2023-04-11T09:27:03.207Z,15.2857
2023-04-11T09:28:03.248Z,15.3571
2023-04-11T09:29:03.284Z,15.4286
2023-04-11T09:30:03.325Z,15.4286
2023-04-11T09:31:03.414Z,15.5
2023-04-11T09:32:03.402Z,15.5714
2023-04-11T09:33:03.517Z,15.5714
2023-04-11T09:34:03.480Z,15.5714
2023-04-11T09:35:03.528Z,15.5714
2023-04-11T09:36:03.581Z,15.5714
2023-04-11T09:37:03.602Z,15.5714
2023-04-11T09:38:03.632Z,15.5714
2023-04-11T09:39:03.678Z,15.5
2023-04-11T09:40:05.598Z,15.5
2023-04-11T09:41:03.760Z,15.4286
2023-04-11T09:42:03.786Z,15.3571
2023-04-11T09:43:03.834Z,15.2857
2023-04-11T09:44:03.893Z,15.2857
2023-04-11T09:45:03.901Z,15.2143
2023-04-11T09:46:03.946Z,15.2143
2023-04-11T09:47:04.022Z,15.2857
2023-04-11T09:48:04.043Z,15.2857
2023-04-11T09:49:04.373Z,15.3571
2023-04-11T09:50:04.102Z,15.4286
2023-04-11T09:51:04.143Z,15.5
2023-04-11T09:52:04.176Z,15.5714
2023-04-11T09:53:04.211Z,15.5714
2023-04-11T09:54:04.725Z,15.6429
2023-04-11T09:55:04.290Z,15.7143
2023-04-11T09:56:04.332Z,15.7857
2023-04-11T09:57:04.359Z,15.8571
2023-04-11T09:58:04.392Z,15.8571
2023-04-11T09:59:04.454Z,15.9286
2023-04-11T10:00:04.478Z,15.9286
2023-04-11T10:01:04.516Z,15.9286
2023-04-11T10:02:04.718Z,15.9286
2023-04-11T10:03:04.702Z,15.9286
2023-04-11T10:04:04.682Z,15.9286
2023-04-11T10:05:04.673Z,15.9286
2023-04-11T10:06:04.700Z,16
2023-04-11T10:07:04.736Z,16
2023-04-11T10:08:04.804Z,16
2023-04-11T10:09:04.825Z,15.9286
2023-04-11T10:10:04.868Z,15.9286
2023-04-11T10:11:04.892Z,15.9286
2023-04-11T10:12:04.937Z,15.9286
2023-04-11T10:13:04.993Z,16
2023-04-11T10:14:05.037Z,16
2023-04-11T10:15:05.065Z,16
2023-04-11T10:16:05.186Z,16.0714
2023-04-11T10:17:05.130Z,16.0714
2023-04-11T10:18:05.214Z,16.0714
2023-04-11T10:19:05.209Z,16.0714
2023-04-11T10:20:05.247Z,16.1429
2023-04-11T10:21:05.283Z,16.2143
2023-04-11T10:22:05.329Z,16.2143
2023-04-11T10:23:05.366Z,16.2143
2023-04-11T10:24:05.403Z,16.2143
2023-04-11T10:25:05.440Z,16.1429
2023-04-11T10:26:05.473Z,16.1429
2023-04-11T10:27:05.525Z,16.0714
2023-04-11T10:28:05.579Z,16.0714
2023-04-11T10:29:05.612Z,16
2023-04-11T10:30:05.647Z,16
2023-04-11T10:31:05.800Z,16
2023-04-11T10:32:05.716Z,15.9286
2023-04-11T10:33:05.788Z,16
2023-04-11T10:34:05.788Z,15.9286
2023-04-11T10:35:05.827Z,15.9286
2023-04-11T10:36:05.977Z,15.9286
2023-04-11T10:37:05.906Z,15.8571
2023-04-11T10:38:05.947Z,15.8571
2023-04-11T10:39:05.972Z,15.7857
2023-04-11T10:40:06.030Z,15.7857
2023-04-11T10:41:06.070Z,15.7143
2023-04-11T10:42:06.102Z,15.7143
2023-04-11T10:43:06.138Z,15.6429
2023-04-11T10:44:06.180Z,15.6429
2023-04-11T10:45:06.215Z,15.6429
2023-04-11T10:46:06.257Z,15.6429
2023-04-11T10:47:06.334Z,15.6429
2023-04-11T10:48:06.374Z,15.6429
2023-04-11T10:49:06.371Z,15.6429
2023-04-11T10:50:06.408Z,15.5714
2023-04-11T10:51:06.452Z,15.5
2023-04-11T10:52:06.493Z,15.5
2023-04-11T10:53:06.559Z,15.4286
2023-04-11T10:54:06.611Z,15.4286
2023-04-11T10:55:06.617Z,15.4286
2023-04-11T10:56:06.663Z,15.4286
2023-04-11T10:57:06.673Z,15.5
2023-04-11T10:58:06.713Z,15.5714
2023-04-11T10:59:06.753Z,15.6429
2023-04-11T11:00:06.808Z,15.7143
2023-04-11T11:01:06.873Z,15.7857
2023-04-11T11:02:06.959Z,15.7857
2023-04-11T11:03:07.012Z,15.8571
2023-04-11T11:04:07.428Z,15.8571
2023-04-11T11:05:07.103Z,15.8571
2023-04-11T11:06:07.034Z,15.8571
2023-04-11T11:07:07.054Z,15.8571
2023-04-11T11:08:07.092Z,15.9286
2023-04-11T11:09:07.132Z,15.9286
2023-04-11T11:10:07.167Z,16
2023-04-11T11:11:07.225Z,16
2023-04-11T11:12:07.251Z,16.0714
2023-04-11T11:13:07.296Z,16.1429
2023-04-11T11:14:07.326Z,16.1429
2023-04-11T11:15:07.368Z,16.2143
2023-04-11T11:16:07.460Z,16.2143
2023-04-11T11:17:07.694Z,16.2143
2023-04-11T11:18:07.532Z,16.2143
2023-04-11T11:19:07.518Z,16.2143
2023-04-11T11:20:07.570Z,16.2857
2023-04-11T11:21:13.877Z,16.2857
2023-04-11T11:22:07.635Z,16.2857
2023-04-11T11:23:07.712Z,16.3571
2023-04-11T11:24:07.718Z,16.3571
2023-04-11T11:25:07.769Z,16.3571
2023-04-11T11:26:07.809Z,16.3571
2023-04-11T11:27:07.834Z,16.3571
2023-04-11T11:28:07.893Z,16.3571
2023-04-11T11:29:07.929Z,16.3571
2023-04-11T11:30:07.958Z,16.3571
2023-04-11T11:31:08.009Z,16.3571
2023-04-11T11:32:08.117Z,16.3571
2023-04-11T11:33:08.176Z,16.3571
2023-04-11T11:34:23.017Z,16.3571
2023-04-11T11:35:08.186Z,16.3571
2023-04-11T11:36:08.207Z,16.2857
2023-04-11T11:37:08.256Z,16.2857
2023-04-11T11:38:08.296Z,16.2143
2023-04-11T11:39:08.338Z,16.2143
2023-04-11T11:40:08.379Z,16.2857
2023-04-11T11:41:08.410Z,16.3571
2023-04-11T11:42:08.451Z,16.4286
2023-04-11T11:43:08.489Z,16.5
2023-04-11T11:44:08.544Z,16.5
2023-04-11T11:45:08.572Z,16.5714
2023-04-11T11:46:08.940Z,16.5714
2023-04-11T11:47:08.647Z,16.5714
2023-04-11T11:48:08.724Z,16.5714
2023-04-11T11:49:08.719Z,16.5714
2023-04-11T11:50:08.769Z,16.5714
2023-04-11T11:51:08.814Z,16.6429
2023-04-11T11:52:08.852Z,16.6429
2023-04-11T11:53:08.919Z,16.7143
2023-04-11T11:54:08.927Z,16.7857
2023-04-11T11:55:10.994Z,16.8571
2023-04-11T11:56:09.016Z,16.8571
2023-04-11T11:57:09.065Z,16.9286
2023-04-11T11:58:09.110Z,16.9286
2023-04-11T11:59:09.153Z,17
2023-04-11T12:00:09.180Z,17.0714
2023-04-11T12:01:09.229Z,17.0714
2023-04-11T12:02:09.368Z,17.1429
2023-04-11T12:03:09.356Z,17.1429
2023-04-11T12:04:09.461Z,17.2143
2023-04-11T12:05:09.441Z,17.1429
2023-04-11T12:06:09.439Z,17.1429
2023-04-11T12:07:09.472Z,17.2143
2023-04-11T12:08:09.516Z,17.2143
2023-04-11T12:09:09.557Z,17.2143
2023-04-11T12:10:09.589Z,17.2857
2023-04-11T12:11:09.623Z,17.2857
2023-04-11T12:12:09.675Z,17.3571
2023-04-11T12:13:09.715Z,17.3571
2023-04-11T12:14:09.759Z,17.3571
2023-04-11T12:15:09.801Z,17.4286
2023-04-11T12:16:09.837Z,17.4286
2023-04-11T12:17:09.864Z,17.4286
2023-04-11T12:18:09.968Z,17.4286
2023-04-11T12:19:09.961Z,17.4286
2023-04-11T12:20:09.984Z,17.4286
2023-04-11T12:21:10.033Z,17.4286
2023-04-11T12:22:10.057Z,17.4286
2023-04-11T12:23:10.095Z,17.4286
2023-04-11T12:24:10.136Z,17.4286
2023-04-11T12:25:10.186Z,17.4286
2023-04-11T12:26:10.223Z,17.4286
2023-04-11T12:27:10.816Z,17.4286